sensor_id;sensor_type;location;lat;lon;timestamp;pressure;altitude;pressure_sealevel;temperature;humidity
64243;BME280;50573;51.512;5.386;2023-05-23T00:02:22;78032.84;;;14.54;100.00
64243;BME280;50573;51.512;5.386;2023-05-23T00:12:27;78054.19;;;14.66;100.00
64243;BME280;50573;51.512;5.386;2023-05-23T00:22:30;78053.63;;;14.65;100.00
64243;BME280;50573;51.512;5.386;2023-05-23T00:32:35;78047.56;;;14.74;100.00
64243;BME280;50573;51.512;5.386;2023-05-23T00:42:38;78070.72;;;14.90;100.00
64243;BME280;50573;51.512;5.386;2023-05-23T00:52:44;78073.59;;;14.92;100.00
64243;BME280;50573;51.512;5.386;2023-05-23T01:02:48;78065.75;;;14.88;100.00
64243;BME280;50573;51.512;5.386;2023-05-23T01:13:02;78069.72;;;14.91;100.00
64243;BME280;50573;51.512;5.386;2023-05-23T01:23:31;78060.44;;;14.81;100.00
64243;BME280;50573;51.512;5.386;2023-05-23T01:33:39;78047.44;;;14.72;100.00
64243;BME280;50573;51.512;5.386;2023-05-23T01:43:43;78045.59;;;14.68;100.00
64243;BME280;50573;51.512;5.386;2023-05-23T01:53:48;78035.28;;;14.59;100.00
64243;BME280;50573;51.512;5.386;2023-05-23T02:03:51;78033.59;;;14.57;100.00
64243;BME280;50573;51.512;5.386;2023-05-23T02:13:56;78027.72;;;14.50;100.00
64243;BME280;50573;51.512;5.386;2023-05-23T02:23:59;78022.69;;;14.48;100.00
64243;BME280;50573;51.512;5.386;2023-05-23T02:34:03;78009.25;;;14.41;100.00
64243;BME280;50573;51.512;5.386;2023-05-23T02:44:06;78013.28;;;14.44;100.00
64243;BME280;50573;51.512;5.386;2023-05-23T02:54:11;78010.41;;;14.42;100.00
64243;BME280;50573;51.512;5.386;2023-05-23T03:04:14;78010.13;;;14.37;100.00
64243;BME280;50573;51.512;5.386;2023-05-23T03:14:19;78026.72;;;14.42;100.00
64243;BME280;50573;51.512;5.386;2023-05-23T03:24:23;77998.97;;;14.32;100.00
64243;BME280;50573;51.512;5.386;2023-05-23T03:34:27;78011.28;;;14.38;100.00
64243;BME280;50573;51.512;5.386;2023-05-23T03:44:31;78018.13;;;14.44;100.00
64243;BME280;50573;51.512;5.386;2023-05-23T03:54:35;78026.16;;;14.51;100.00
64243;BME280;50573;51.512;5.386;2023-05-23T04:04:38;78024.41;;;14.49;100.00
64243;BME280;50573;51.512;5.386;2023-05-23T04:14:43;78026.72;;;14.51;100.00
64243;BME280;50573;51.512;5.386;2023-05-23T04:24:48;78033.59;;;14.57;100.00
64243;BME280;50573;51.512;5.386;2023-05-23T04:34:54;78023.28;;;14.48;100.00
64243;BME280;50573;51.512;5.386;2023-05-23T04:44:59;78035.88;;;14.50;100.00
64243;BME280;50573;51.512;5.386;2023-05-23T04:55:27;78034.72;;;14.58;100.00
64243;BME280;50573;51.512;5.386;2023-05-23T05:05:30;78025.56;;;14.50;100.00
64243;BME280;50573;51.512;5.386;2023-05-23T05:15:34;78021.56;;;14.47;100.00
64243;BME280;50573;51.512;5.386;2023-05-23T05:25:38;78016.00;;;14.44;100.00
64243;BME280;50573;51.512;5.386;2023-05-23T05:35:43;77986.94;;;14.21;100.00
64243;BME280;50573;51.512;5.386;2023-05-23T05:45:47;77985.66;;;14.18;100.00
64243;BME280;50573;51.512;5.386;2023-05-23T05:55:52;77995.66;;;14.22;100.00
64243;BME280;50573;51.512;5.386;2023-05-23T06:05:57;77955.94;;;13.91;100.00
64243;BME280;50573;51.512;5.386;2023-05-23T06:16:01;77951.38;;;13.87;100.00
64243;BME280;50573;51.512;5.386;2023-05-23T06:26:04;77942.66;;;13.77;100.00
64243;BME280;50573;51.512;5.386;2023-05-23T06:36:12;77944.94;;;13.79;100.00
64243;BME280;50573;51.512;5.386;2023-05-23T06:46:15;77944.94;;;13.79;100.00
64243;BME280;50573;51.512;5.386;2023-05-23T06:56:20;77913.66;;;13.54;100.00
64243;BME280;50573;51.512;5.386;2023-05-23T07:06:29;77890.50;;;13.29;100.00
64243;BME280;50573;51.512;5.386;2023-05-23T07:16:35;77891.78;;;13.33;100.00
64243;BME280;50573;51.512;5.386;2023-05-23T07:26:41;77959.78;;;13.92;92.33
64243;BME280;50573;51.512;5.386;2023-05-23T07:36:45;77990.53;;;14.17;84.79
64243;BME280;50573;51.512;5.386;2023-05-23T07:46:52;78036.31;;;14.57;80.83
64243;BME280;50573;51.512;5.386;2023-05-23T07:56:57;78055.88;;;14.77;82.51
64243;BME280;50573;51.512;5.386;2023-05-23T08:07:00;78078.31;;;14.99;82.85
64243;BME280;50573;51.512;5.386;2023-05-23T08:17:34;78062.59;;;14.80;81.05
64243;BME280;50573;51.512;5.386;2023-05-23T08:27:37;78141.16;;;15.42;78.91
64243;BME280;50573;51.512;5.386;2023-05-23T08:37:57;78090.31;;;15.09;81.37
64243;BME280;50573;51.512;5.386;2023-05-23T08:48:05;78131.41;;;15.43;81.47
64243;BME280;50573;51.512;5.386;2023-05-23T08:58:17;78135.97;;;15.47;81.62
64243;BME280;50573;51.512;5.386;2023-05-23T09:08:27;78211.94;;;16.11;80.96
64243;BME280;50573;51.512;5.386;2023-05-23T09:18:36;78224.94;;;16.30;79.97
64243;BME280;50573;51.512;5.386;2023-05-23T09:28:41;78184.59;;;15.90;79.45
64243;BME280;50573;51.512;5.386;2023-05-23T09:38:47;78159.13;;;15.72;74.00
64243;BME280;50573;51.512;5.386;2023-05-23T09:48:50;78142.84;;;15.53;73.33
64243;BME280;50573;51.512;5.386;2023-05-23T09:58:57;78218.38;;;16.19;69.96
64243;BME280;50573;51.512;5.386;2023-05-23T10:09:03;78193.78;;;15.98;69.62
64243;BME280;50573;51.512;5.386;2023-05-23T10:19:19;78244.84;;;16.45;66.88
64243;BME280;50573;51.512;5.386;2023-05-23T10:29:24;78269.22;;;16.62;64.84
64243;BME280;50573;51.512;5.386;2023-05-23T10:39:39;78288.78;;;16.81;64.65
64243;BME280;50573;51.512;5.386;2023-05-23T10:49:45;78348.03;;;17.38;61.97
64243;BME280;50573;51.512;5.386;2023-05-23T10:59:50;78373.00;;;17.55;58.79
64243;BME280;50573;51.512;5.386;2023-05-23T11:10:07;78351.91;;;17.39;59.21
64243;BME280;50573;51.512;5.386;2023-05-23T11:20:13;78385.16;;;17.68;57.11
64243;BME280;50573;51.512;5.386;2023-05-23T11:30:18;78460.66;;;18.32;57.29
64243;BME280;50573;51.512;5.386;2023-05-23T11:40:28;78355.78;;;17.40;57.59
64243;BME280;50573;51.512;5.386;2023-05-23T11:50:31;78359.50;;;17.48;57.34
64243;BME280;50573;51.512;5.386;2023-05-23T12:00:42;78413.56;;;17.88;55.44
64243;BME280;50573;51.512;5.386;2023-05-23T12:10:49;78413.78;;;17.93;54.52
64243;BME280;50573;51.512;5.386;2023-05-23T12:20:54;78484.41;;;18.57;52.64
64243;BME280;50573;51.512;5.386;2023-05-23T12:31:08;78491.59;;;18.59;54.46
64243;BME280;50573;51.512;5.386;2023-05-23T12:41:16;78440.13;;;18.16;53.90
64243;BME280;50573;51.512;5.386;2023-05-23T12:51:20;78425.38;;;18.06;52.65
64243;BME280;50573;51.512;5.386;2023-05-23T13:01:25;78467.97;;;18.36;51.70
64243;BME280;50573;51.512;5.386;2023-05-23T13:11:29;78547.19;;;19.07;50.62
64243;BME280;50573;51.512;5.386;2023-05-23T13:21:34;78382.81;;;17.54;53.98
64243;BME280;50573;51.512;5.386;2023-05-23T13:31:37;78478.09;;;18.52;48.44
64243;BME280;50573;51.512;5.386;2023-05-23T13:41:41;78535.16;;;18.97;48.16
64243;BME280;50573;51.512;5.386;2023-05-23T13:51:45;78510.31;;;18.82;51.49
64243;BME280;50573;51.512;5.386;2023-05-23T14:01:49;78475.09;;;18.47;50.93
64243;BME280;50573;51.512;5.386;2023-05-23T14:11:52;78374.84;;;17.59;53.40
64243;BME280;50573;51.512;5.386;2023-05-23T14:21:56;78492.25;;;18.50;46.87
64243;BME280;50573;51.512;5.386;2023-05-23T14:31:59;78614.28;;;19.66;46.58
64243;BME280;50573;51.512;5.386;2023-05-23T14:42:06;78697.69;;;20.44;41.84
64243;BME280;50573;51.512;5.386;2023-05-23T14:52:09;78522.78;;;18.91;47.24
64243;BME280;50573;51.512;5.386;2023-05-23T15:02:14;78410.22;;;17.87;51.85
64243;BME280;50573;51.512;5.386;2023-05-23T15:12:18;78524.84;;;18.88;47.16
64243;BME280;50573;51.512;5.386;2023-05-23T15:22:23;78431.41;;;18.06;49.49
64243;BME280;50573;51.512;5.386;2023-05-23T15:32:30;78323.41;;;17.16;50.80
64243;BME280;50573;51.512;5.386;2023-05-23T15:42:35;78321.56;;;17.12;51.45
64243;BME280;50573;51.512;5.386;2023-05-23T15:52:38;78292.81;;;16.85;52.50
64243;BME280;50573;51.512;5.386;2023-05-23T16:02:42;78307.38;;;17.02;52.97
64243;BME280;50573;51.512;5.386;2023-05-23T16:12:46;78224.09;;;16.24;54.87
64243;BME280;50573;51.512;5.386;2023-05-23T16:22:50;78214.22;;;16.13;53.13
64243;BME280;50573;51.512;5.386;2023-05-23T16:32:53;78217.09;;;16.16;54.54
64243;BME280;50573;51.512;5.386;2023-05-23T16:42:58;78201.22;;;16.04;54.11
64243;BME280;50573;51.512;5.386;2023-05-23T16:53:01;78212.66;;;16.14;52.52
64243;BME280;50573;51.512;5.386;2023-05-23T17:03:05;78149.13;;;15.59;54.51
64243;BME280;50573;51.512;5.386;2023-05-23T17:13:08;78101.19;;;15.19;56.66
64243;BME280;50573;51.512;5.386;2023-05-23T17:23:13;78098.75;;;15.14;58.39
64243;BME280;50573;51.512;5.386;2023-05-23T17:33:16;78082.88;;;15.03;56.46
64243;BME280;50573;51.512;5.386;2023-05-23T17:43:21;78056.59;;;14.80;55.67
64243;BME280;50573;51.512;5.386;2023-05-23T17:53:25;78031.41;;;14.58;52.35
64243;BME280;50573;51.512;5.386;2023-05-23T18:03:30;78008.56;;;14.38;54.26
64243;BME280;50573;51.512;5.386;2023-05-23T18:13:34;78003.28;;;14.31;56.56
64243;BME280;50573;51.512;5.386;2023-05-23T18:23:38;77978.09;;;14.09;56.99
64243;BME280;50573;51.512;5.386;2023-05-23T18:33:42;77963.09;;;13.93;55.19
64243;BME280;50573;51.512;5.386;2023-05-23T18:43:47;77938.50;;;13.71;57.80
64243;BME280;50573;51.512;5.386;2023-05-23T18:53:50;77920.09;;;13.43;59.87
64243;BME280;50573;51.512;5.386;2023-05-23T19:03:55;77859.81;;;13.05;62.12
64243;BME280;50573;51.512;5.386;2023-05-23T19:13:58;77848.34;;;12.85;62.55
64243;BME280;50573;51.512;5.386;2023-05-23T19:24:03;77793.22;;;12.51;64.23
64243;BME280;50573;51.512;5.386;2023-05-23T19:34:08;77782.09;;;12.27;67.08
64243;BME280;50573;51.512;5.386;2023-05-23T19:44:12;77743.09;;;12.00;68.58
64243;BME280;50573;51.512;5.386;2023-05-23T19:54:15;77731.25;;;11.82;70.33
64243;BME280;50573;51.512;5.386;2023-05-23T20:04:20;77693.13;;;11.61;71.62
64243;BME280;50573;51.512;5.386;2023-05-23T20:14:25;77671.31;;;11.39;73.54
64243;BME280;50573;51.512;5.386;2023-05-23T20:24:31;77655.88;;;11.26;74.63
64243;BME280;50573;51.512;5.386;2023-05-23T20:34:34;77644.34;;;11.13;75.62
64243;BME280;50573;51.512;5.386;2023-05-23T20:44:39;77635.34;;;11.07;75.95
64243;BME280;50573;51.512;5.386;2023-05-23T20:54:41;77624.50;;;10.88;77.35
64243;BME280;50573;51.512;5.386;2023-05-23T21:04:46;77592.00;;;10.69;78.53
64243;BME280;50573;51.512;5.386;2023-05-23T21:14:49;77568.75;;;10.51;79.62
64243;BME280;50573;51.512;5.386;2023-05-23T21:24:53;77566.28;;;10.37;80.90
64243;BME280;50573;51.512;5.386;2023-05-23T21:34:57;77556.16;;;10.21;82.71
64243;BME280;50573;51.512;5.386;2023-05-23T21:45:01;77519.94;;;10.04;83.52
64243;BME280;50573;51.512;5.386;2023-05-23T21:55:05;77496.84;;;9.88;85.21
64243;BME280;50573;51.512;5.386;2023-05-23T22:05:09;77500.53;;;9.77;85.87
64243;BME280;50573;51.512;5.386;2023-05-23T22:15:13;77471.03;;;9.63;84.68
64243;BME280;50573;51.512;5.386;2023-05-23T22:25:18;77450.53;;;9.45;86.31
64243;BME280;50573;51.512;5.386;2023-05-23T22:35:22;77431.84;;;9.31;86.13
64243;BME280;50573;51.512;5.386;2023-05-23T22:45:27;77425.97;;;9.14;87.76
64243;BME280;50573;51.512;5.386;2023-05-23T22:55:30;77389.53;;;8.91;89.27
64243;BME280;50573;51.512;5.386;2023-05-23T23:05:35;77360.44;;;8.66;89.32
64243;BME280;50573;51.512;5.386;2023-05-23T23:15:38;77344.34;;;8.49;89.84
64243;BME280;50573;51.512;5.386;2023-05-23T23:25:44;77337.91;;;8.31;91.16
64243;BME280;50573;51.512;5.386;2023-05-23T23:35:50;77333.63;;;8.32;91.34
64243;BME280;50573;51.512;5.386;2023-05-23T23:45:55;77320.44;;;8.28;94.63
64243;BME280;50573;51.512;5.386;2023-05-23T23:55:58;77298.50;;;8.13;95.92
